Time;durP1;ratioP1;P1;durP2;ratioP2;P2;SDS_P1;SDS_P2;PMS_P1;PMS_P2;Temp;Humidity;BMP_temperature;BMP_pressure;BME280_temperature;BME280_humidity;BME280_pressure;Samples;Min_cycle;Max_cycle;Signal;HPM_P1;HPM_P2
2023/01/25 00:00:39;;;;;;;36.97;19.85;;;;;;;-143.48;80.66;118439.88;5094118;28;20024;-33
2023/01/25 00:03:05;;;;;;;34.53;19.58;;;;;;;-143.48;80.05;118439.88;5093898;28;20020;-33
2023/01/25 00:05:30;;;;;;;35.47;20.00;;;;;;;-143.48;80.48;118439.88;5093773;28;20125;-32
2023/01/25 00:07:56;;;;;;;35.28;19.65;;;;;;;-143.48;80.76;118439.88;5093998;28;20034;-33
2023/01/25 00:10:21;;;;;;;32.13;19.33;;;;;;;-143.48;81.00;118439.88;5093989;28;20038;-33
2023/01/25 00:12:46;;;;;;;36.67;19.52;;;;;;;-143.48;80.58;118439.88;5093399;28;20024;-33
2023/01/25 00:15:12;;;;;;;31.83;18.42;;;;;;;-143.48;81.49;118439.88;5093996;28;20420;-33
2023/01/25 00:17:37;;;;;;;32.45;18.67;;;;;;;-143.48;81.10;118439.88;5093722;28;20073;-33
2023/01/25 00:20:03;;;;;;;30.05;18.33;;;;;;;-143.48;80.74;118439.88;5093955;28;20035;-33
2023/01/25 00:22:28;;;;;;;35.42;18.88;;;;;;;-143.48;80.59;118439.88;5093579;28;20454;-33
2023/01/25 00:24:54;;;;;;;31.67;18.27;;;;;;;-143.48;80.92;118439.88;5093870;28;20086;-33
2023/01/25 00:27:19;;;;;;;30.48;17.90;;;;;;;-143.48;80.39;118439.88;5093874;28;20099;-33
2023/01/25 00:29:44;;;;;;;33.28;18.92;;;;;;;-143.48;80.34;118439.88;5093505;28;20485;-33
2023/01/25 00:32:09;;;;;;;32.90;18.85;;;;;;;-143.48;80.92;118439.88;5093621;28;20024;-33
2023/01/25 00:34:50;;;;;;;35.90;19.40;;;;;;;-143.48;81.25;118439.88;5100001;28;20039;-33
2023/01/25 00:37:23;;;;;;;34.72;18.45;;;;;;;-143.48;82.15;118439.88;5100341;28;20028;-33
2023/01/25 00:39:49;;;;;;;;;;;;;;;-143.48;82.05;118439.88;5100954;28;20485;-33
2023/01/25 00:42:16;;;;;;;32.92;17.75;;;;;;;-143.48;81.00;118439.88;5100215;28;19907;-33
2023/01/25 00:44:42;;;;;;;34.65;18.58;;;;;;;-143.48;82.62;118439.88;5100455;28;20073;-33
2023/01/25 00:47:09;;;;;;;34.58;19.73;;;;;;;-143.48;82.48;118439.88;5100221;28;20359;-33
2023/01/25 00:49:35;;;;;;;35.13;18.80;;;;;;;-143.48;82.91;118439.88;5100324;28;20047;-33
2023/01/25 00:52:00;;;;;;;32.70;19.05;;;;;;;-143.48;82.64;118439.88;5100412;28;20020;-33
2023/01/25 00:54:26;;;;;;;32.65;18.08;;;;;;;-143.48;81.74;118439.88;5100350;28;20067;-33
2023/01/25 00:56:52;;;;;;;33.90;19.15;;;;;;;-143.48;81.52;118439.88;5100071;28;20046;-33
2023/01/25 00:59:18;;;;;;;33.47;18.58;;;;;;;-143.48;81.28;118439.88;5099902;28;20073;-32
2023/01/25 01:01:44;;;;;;;32.42;18.85;;;;;;;-143.48;81.25;118439.88;5100556;28;20109;-33
2023/01/25 01:04:09;;;;;;;32.25;18.83;;;;;;;-143.48;80.96;118439.88;5100045;28;20522;-33
2023/01/25 01:06:36;;;;;;;33.40;18.40;;;;;;;-143.48;81.26;118439.88;5099921;28;20048;-33
2023/01/25 01:09:02;;;;;;;36.42;18.35;;;;;;;-143.48;80.08;118439.88;5100428;28;20016;-33
2023/01/25 01:11:27;;;;;;;34.17;17.67;;;;;;;-143.48;80.21;118439.88;5100077;28;20030;-33
2023/01/25 01:13:56;;;;;;;35.40;19.27;;;;;;;-143.48;81.01;118439.88;5100490;28;20024;-33
2023/01/25 01:16:21;;;;;;;33.85;19.38;;;;;;;-143.48;80.62;118439.88;5100463;28;20028;-40
2023/01/25 01:18:46;;;;;;;32.78;18.30;;;;;;;-143.48;80.08;118439.88;5100198;28;20524;-33
2023/01/25 01:21:12;;;;;;;33.58;18.92;;;;;;;-143.48;81.08;118439.88;5099805;28;20477;-32
2023/01/25 01:23:38;;;;;;;31.67;18.20;;;;;;;-143.48;81.61;118439.88;5100385;28;20111;-34
2023/01/25 01:26:07;;;;;;;31.73;18.02;;;;;;;-143.48;81.58;118439.88;5100067;28;20344;-32
2023/01/25 01:28:34;;;;;;;35.90;19.52;;;;;;;-143.48;81.86;118439.88;5099603;28;20131;-33
2023/01/25 01:31:01;;;;;;;31.33;18.02;;;;;;;-143.48;81.00;118439.88;5099993;28;20052;-34
2023/01/25 01:33:26;;;;;;;31.67;18.05;;;;;;;-143.48;80.71;118439.88;5100004;28;20466;-33
2023/01/25 01:35:52;;;;;;;30.30;17.40;;;;;;;-143.48;79.77;118439.88;5100012;28;20016;-33
2023/01/25 01:38:17;;;;;;;32.63;18.52;;;;;;;-143.48;80.62;118439.88;5099926;28;20051;-33
2023/01/25 01:40:47;;;;;;;32.00;18.10;;;;;;;-143.48;81.79;118439.88;5099595;28;20386;-33
2023/01/25 01:43:23;;;;;;;32.60;18.77;;;;;;;-143.48;81.39;118439.88;5099922;28;20048;-33
2023/01/25 01:45:56;;;;;;;31.05;17.65;;;;;;;-143.48;81.50;118439.88;5096312;28;20041;-33
2023/01/25 01:48:36;;;;;;;32.80;17.75;;;;;;;-143.48;81.83;118439.88;5096224;28;20024;-33
2023/01/25 01:51:26;;;;;;;33.40;17.83;;;;;;;-143.48;81.98;118439.88;5078188;28;20386;-33
2023/01/25 01:54:00;;;;;;;36.75;18.52;;;;;;;-143.48;82.65;118439.88;5096344;28;20051;-33
2023/01/25 01:56:34;;;;;;;32.22;18.10;;;;;;;-143.48;82.38;118439.88;5096527;28;20519;-33
2023/01/25 01:59:02;;;;;;;34.70;18.73;;;;;;;-143.48;82.12;118439.88;5096657;28;20020;-33
2023/01/25 02:01:27;;;;;;;35.25;18.60;;;;;;;-143.48;81.15;118439.88;5095641;28;20038;-33
2023/01/25 02:03:54;;;;;;;34.55;17.83;;;;;;;-143.48;82.21;118439.88;5095613;28;20028;-33
2023/01/25 02:06:27;;;;;;;35.65;17.80;;;;;;;-143.48;83.03;118439.88;5095405;28;20082;-32
2023/01/25 02:08:54;;;;;;;37.83;18.98;;;;;;;-143.48;82.05;118439.88;5094048;28;20524;-33
2023/01/25 02:11:20;;;;;;;32.80;18.20;;;;;;;-143.48;81.68;118439.88;5094116;28;20031;-33
2023/01/25 02:13:47;;;;;;;30.70;17.70;;;;;;;-143.48;81.06;118439.88;5094028;28;20051;-32
2023/01/25 02:16:21;;;;;;;34.00;18.00;;;;;;;-143.48;82.09;118439.88;5093784;28;20031;-33
2023/01/25 02:18:46;;;;;;;32.00;17.58;;;;;;;-143.48;82.34;118439.88;5093735;28;20028;-33
2023/01/25 02:21:12;;;;;;;34.53;17.88;;;;;;;-143.48;81.86;118439.88;5093645;28;20524;-33
2023/01/25 02:23:49;;;;;;;31.80;18.00;;;;;;;-143.48;81.09;118439.88;5096030;28;20083;-40
2023/01/25 02:26:18;;;;;;;31.58;16.85;;;;;;;-143.48;81.65;118439.88;5095788;28;20102;-33
2023/01/25 02:28:53;;;;;;;33.92;17.63;;;;;;;-143.48;81.80;118439.88;5095881;28;20436;-33
2023/01/25 02:31:18;;;;;;;33.67;17.38;;;;;;;-143.48;82.80;118439.88;5095936;28;20047;-33
2023/01/25 02:33:43;;;;;;;31.98;16.92;;;;;;;-143.48;82.16;118439.88;5095602;28;20028;-33
2023/01/25 02:36:09;;;;;;;33.13;17.15;;;;;;;-143.48;82.04;118439.88;5095839;28;20028;-32
2023/01/25 02:38:41;;;;;;;32.20;17.35;;;;;;;-143.48;83.02;118439.88;5095716;28;20421;-33
2023/01/25 02:41:12;;;;;;;31.33;17.00;;;;;;;-143.48;82.30;118439.88;5095420;28;20074;-33
2023/01/25 02:43:38;;;;;;;34.40;18.63;;;;;;;-143.48;82.36;118439.88;5095629;28;20020;-33
2023/01/25 02:46:13;;;;;;;34.05;17.52;;;;;;;-143.48;82.30;118439.88;5095869;28;20114;-33
2023/01/25 02:48:39;;;;;;;32.70;18.13;;;;;;;-143.48;81.94;118439.88;5095627;28;20040;-33
2023/01/25 02:51:08;;;;;;;34.88;18.10;;;;;;;-143.48;82.13;118439.88;5095553;28;20458;-33
2023/01/25 02:53:34;;;;;;;33.10;17.33;;;;;;;-143.48;81.88;118439.88;5095237;28;20107;-33
2023/01/25 02:55:59;;;;;;;34.00;18.38;;;;;;;-143.48;82.08;118439.88;5094986;28;20055;-33
2023/01/25 02:58:25;;;;;;;35.00;18.02;;;;;;;-143.48;82.25;118439.88;5095336;28;20081;-33
2023/01/25 03:00:50;;;;;;;33.47;18.13;;;;;;;-143.48;83.15;118439.88;5095203;28;20028;-33
2023/01/25 03:03:15;;;;;;;34.25;17.83;;;;;;;-143.48;82.50;118439.88;5095516;28;20056;-33
2023/01/25 03:05:40;;;;;;;35.25;18.50;;;;;;;-143.48;82.77;118439.88;5094787;28;20051;-36
2023/01/25 03:08:06;;;;;;;32.75;17.33;;;;;;;-143.48;82.72;118439.88;5095477;28;20046;-33
2023/01/25 03:10:31;;;;;;;32.85;18.75;;;;;;;-143.48;83.35;118439.88;5095267;28;20058;-32
2023/01/25 03:12:56;;;;;;;35.92;18.67;;;;;;;-143.48;83.36;118439.88;5094710;28;20042;-33
2023/01/25 03:15:22;;;;;;;35.33;18.98;;;;;;;-143.48;83.27;118439.88;5095052;28;20422;-33
2023/01/25 03:17:47;;;;;;;37.00;19.17;;;;;;;-143.48;83.35;118439.88;5094666;28;20509;-33
2023/01/25 03:20:12;;;;;;;34.30;17.88;;;;;;;-143.48;83.72;118439.88;5095199;28;20434;-33
2023/01/25 03:22:37;;;;;;;37.00;18.00;;;;;;;-143.48;82.69;118439.88;5094582;28;20024;-32
2023/01/25 03:25:03;;;;;;;33.03;17.48;;;;;;;-143.48;81.61;118439.88;5094745;28;20063;-32
2023/01/25 03:27:29;;;;;;;34.60;17.42;;;;;;;-143.48;82.21;118439.88;5095076;28;20030;-32
2023/01/25 03:29:55;;;;;;;33.90;18.27;;;;;;;-143.48;82.26;118439.88;5094451;28;20089;-32
2023/01/25 03:32:20;;;;;;;34.08;17.83;;;;;;;-143.48;82.38;118439.88;5094367;28;20031;-34
2023/01/25 03:34:45;;;;;;;35.75;17.23;;;;;;;-143.48;83.27;118439.88;5094366;28;20039;-33
2023/01/25 03:37:11;;;;;;;33.10;18.05;;;;;;;-143.48;83.91;118439.88;5094622;28;20103;-33
2023/01/25 03:39:36;;;;;;;33.33;17.52;;;;;;;-143.48;83.30;118439.88;5094304;28;20012;-33
2023/01/25 03:42:01;;;;;;;34.83;17.35;;;;;;;-143.48;82.99;118439.88;5094556;28;20035;-32
2023/01/25 03:44:27;;;;;;;31.70;17.60;;;;;;;-143.48;82.84;118439.88;5076580;28;20062;-33
2023/01/25 03:46:52;;;;;;;32.88;17.35;;;;;;;-143.48;83.14;118439.88;5094460;28;20043;-32
2023/01/25 03:49:18;;;;;;;32.55;16.65;;;;;;;-143.48;82.94;118439.88;5094010;28;20028;-32
2023/01/25 03:51:43;;;;;;;32.28;17.20;;;;;;;-143.48;82.70;118439.88;5094349;28;20031;-33
2023/01/25 03:54:09;;;;;;;33.67;17.60;;;;;;;-143.48;83.52;118439.88;5094088;28;20020;-33
2023/01/25 03:56:35;;;;;;;32.92;16.50;;;;;;;-143.48;82.93;118439.88;5094298;28;20031;-33
2023/01/25 03:59:00;;;;;;;33.55;17.15;;;;;;;-143.48;82.80;118439.88;5094172;28;20479;-32
2023/01/25 04:01:26;;;;;;;33.35;17.17;;;;;;;-143.48;82.44;118439.88;5094212;28;20027;-33
2023/01/25 04:03:51;;;;;;;31.70;17.13;;;;;;;-143.48;82.40;118439.88;5093934;28;20030;-33
2023/01/25 04:06:16;;;;;;;32.63;17.00;;;;;;;-143.48;82.28;118439.88;5093731;28;20048;-32
2023/01/25 04:08:42;;;;;;;33.30;16.75;;;;;;;-143.48;81.95;118439.88;5093189;28;20020;-33
2023/01/25 04:11:09;;;;;;;32.72;16.80;;;;;;;-143.48;82.09;118439.88;5093750;28;20058;-33
2023/01/25 04:13:35;;;;;;;30.20;15.38;;;;;;;-143.48;81.82;118439.88;5093783;28;20024;-33
2023/01/25 04:16:02;;;;;;;32.72;16.70;;;;;;;-143.48;82.62;118439.88;5093945;28;20504;-32
2023/01/25 04:18:28;;;;;;;36.28;17.45;;;;;;;-143.48;81.78;118439.88;5094476;28;20070;-33
2023/01/25 04:20:54;;;;;;;31.85;16.33;;;;;;;-143.48;81.46;118439.88;5093973;28;20031;-32
2023/01/25 04:23:20;;;;;;;33.88;17.60;;;;;;;-143.48;82.28;118439.88;5093609;28;20081;-33
2023/01/25 04:25:56;;;;;;;32.13;16.65;;;;;;;-143.48;83.33;118439.88;5093846;28;20028;-33
2023/01/25 04:28:23;;;;;;;33.00;17.08;;;;;;;-143.48;83.73;118439.88;5093505;28;20027;-33
2023/01/25 04:30:49;;;;;;;35.17;18.13;;;;;;;-143.48;83.30;118439.88;5093538;28;20032;-33
2023/01/25 04:33:14;;;;;;;33.95;16.73;;;;;;;-143.48;83.22;118439.88;5094079;28;20479;-33
2023/01/25 04:35:40;;;;;;;34.13;17.13;;;;;;;-143.48;83.65;118439.88;5093428;28;20431;-33
2023/01/25 04:38:06;;;;;;;33.70;17.08;;;;;;;-143.48;82.70;118439.88;5094116;28;20035;-33
2023/01/25 04:40:31;;;;;;;31.65;16.38;;;;;;;-143.48;82.49;118439.88;5093991;28;20366;-33
2023/01/25 04:42:57;;;;;;;34.00;17.23;;;;;;;-143.48;82.54;118439.88;5093549;28;20028;-33
2023/01/25 04:45:24;;;;;;;38.30;17.75;;;;;;;-143.48;83.62;118439.88;5093721;28;20035;-33
2023/01/25 04:47:55;;;;;;;37.17;18.15;;;;;;;-143.48;84.17;118439.88;5093353;28;20031;-33
2023/01/25 04:50:20;;;;;;;32.55;17.13;;;;;;;-143.48;83.35;118439.88;5093561;28;20059;-32
2023/01/25 04:52:46;;;;;;;33.38;17.25;;;;;;;-143.48;83.20;118439.88;5093666;28;20016;-33
2023/01/25 04:55:11;;;;;;;35.38;17.88;;;;;;;-143.48;83.06;118439.88;5093628;28;20161;-34
2023/01/25 04:57:36;;;;;;;36.50;17.27;;;;;;;-143.48;82.42;118439.88;5093339;28;20020;-33
2023/01/25 05:00:02;;;;;;;35.60;18.10;;;;;;;-143.48;82.16;118439.88;5093448;28;20052;-33
2023/01/25 05:02:27;;;;;;;34.60;18.52;;;;;;;-143.48;83.05;118439.88;5075172;28;20043;-33
2023/01/25 05:04:53;;;;;;;37.05;18.38;;;;;;;-143.48;83.96;118439.88;5093265;28;20077;-32
2023/01/25 05:07:18;;;;;;;37.13;17.92;;;;;;;-143.48;82.10;118439.88;5093467;28;20024;-33
2023/01/25 05:09:43;;;;;;;32.78;17.63;;;;;;;-143.48;82.72;118439.88;5093163;28;20032;-33
2023/01/25 05:12:12;;;;;;;37.70;18.27;;;;;;;-143.48;82.79;118439.88;5093472;28;20039;-33
2023/01/25 05:14:38;;;;;;;34.20;17.40;;;;;;;-143.48;83.12;118439.88;5093714;28;20085;-33
2023/01/25 05:17:07;;;;;;;40.33;18.67;;;;;;;-143.48;84.10;118439.88;5093097;28;20111;-33
2023/01/25 05:19:32;;;;;;;38.08;18.23;;;;;;;-143.48;83.39;118439.88;5093905;28;20028;-33
2023/01/25 05:21:59;;;;;;;38.88;19.20;;;;;;;-143.48;82.95;118439.88;5097508;28;20068;-33
2023/01/25 05:24:29;;;;;;;39.88;19.17;;;;;;;-143.48;83.14;118439.88;5097189;28;20476;-32
2023/01/25 05:27:04;;;;;;;37.17;19.08;;;;;;;-143.48;82.42;118439.88;5096885;28;20028;-33
2023/01/25 05:29:34;;;;;;;37.58;18.88;;;;;;;-143.48;82.43;118439.88;5096926;28;20032;-33
2023/01/25 05:32:04;;;;;;;43.30;19.52;;;;;;;-143.48;82.04;118439.88;5097031;28;20154;-32
2023/01/25 05:34:29;;;;;;;40.25;20.17;;;;;;;-143.48;82.46;118439.88;5097343;28;20032;-32
2023/01/25 05:36:55;;;;;;;41.30;19.00;;;;;;;-143.48;82.44;118439.88;5096847;28;20038;-33
2023/01/25 05:39:21;;;;;;;39.38;20.00;;;;;;;-143.48;82.65;118439.88;5096900;28;20016;-33
2023/01/25 05:41:46;;;;;;;41.78;20.33;;;;;;;-143.48;82.36;118439.88;5096869;28;20162;-33
2023/01/25 05:44:11;;;;;;;41.53;19.73;;;;;;;-143.48;82.04;118439.88;5096823;28;20081;-32
2023/01/25 05:46:37;;;;;;;41.08;19.65;;;;;;;-143.48;81.95;118439.88;5096740;28;20048;-33
2023/01/25 05:49:02;;;;;;;42.58;20.35;;;;;;;-143.48;82.89;118439.88;5096368;28;20066;-33
2023/01/25 05:51:28;;;;;;;40.42;19.98;;;;;;;-143.48;82.39;118439.88;5096345;28;20081;-33
2023/01/25 05:53:55;;;;;;;40.83;20.35;;;;;;;-143.48;81.73;118439.88;5096302;28;20032;-33
2023/01/25 05:56:21;;;;;;;46.00;21.05;;;;;;;-143.48;82.10;118439.88;5096563;28;20070;-33
2023/01/25 05:58:46;;;;;;;40.97;20.17;;;;;;;-143.48;82.96;118439.88;5096462;28;20454;-33
2023/01/25 06:01:11;;;;;;;43.83;20.25;;;;;;;-143.48;82.80;118439.88;5096190;28;20024;-33
2023/01/25 06:03:36;;;;;;;40.13;19.60;;;;;;;-143.48;82.24;118439.88;5096421;28;20059;-33
2023/01/25 06:06:02;;;;;;;41.15;19.80;;;;;;;-143.48;81.77;118439.88;5077800;28;20046;-32
2023/01/25 06:08:28;;;;;;;43.63;21.08;;;;;;;-143.48;81.07;118439.88;5096300;28;20103;-33
2023/01/25 06:10:54;;;;;;;42.47;21.10;;;;;;;-143.48;82.37;118439.88;5096037;28;20024;-33
2023/01/25 06:13:21;;;;;;;44.67;21.98;;;;;;;-143.48;82.95;118439.88;5096239;28;20028;-33
2023/01/25 06:15:54;;;;;;;45.95;20.75;;;;;;;-143.48;82.58;118439.88;5096060;28;20375;-33
2023/01/25 06:18:20;;;;;;;43.22;20.40;;;;;;;-143.48;83.14;118439.88;5095896;28;20023;-33
2023/01/25 06:20:46;;;;;;;43.95;20.83;;;;;;;-143.48;82.50;118439.88;5095737;28;20052;-33
2023/01/25 06:23:11;;;;;;;45.25;20.88;;;;;;;-143.48;82.50;118439.88;5096338;28;20099;-33
2023/01/25 06:25:37;;;;;;;43.08;20.40;;;;;;;-143.48;82.41;118439.88;5095775;28;20020;-33
2023/01/25 06:28:02;;;;;;;44.17;20.63;;;;;;;-143.48;81.81;118439.88;5096237;28;20106;-33
2023/01/25 06:30:27;;;;;;;42.80;21.25;;;;;;;-143.48;81.66;118439.88;5095354;28;20094;-33
2023/01/25 06:32:53;;;;;;;45.33;21.48;;;;;;;-143.48;82.20;118439.88;5095620;28;20535;-33
2023/01/25 06:35:18;;;;;;;47.08;20.98;;;;;;;-143.48;82.27;118439.88;5095874;28;20034;-33
2023/01/25 06:37:43;;;;;;;46.28;21.85;;;;;;;-143.48;82.48;118439.88;5095803;28;20059;-33
2023/01/25 06:40:09;;;;;;;50.35;22.67;;;;;;;-143.48;82.96;118439.88;5095752;28;20035;-33
2023/01/25 06:42:35;;;;;;;46.65;22.88;;;;;;;-143.48;82.67;118439.88;5095330;28;20027;-39
2023/01/25 06:45:00;;;;;;;43.33;21.92;;;;;;;-143.48;82.53;118439.88;5095286;28;20024;-33
2023/01/25 06:47:26;;;;;;;51.50;21.95;;;;;;;-143.48;81.57;118439.88;5095579;28;20031;-33
2023/01/25 06:49:51;;;;;;;45.25;22.00;;;;;;;-143.48;82.05;118439.88;5095489;28;20028;-33
2023/01/25 06:52:16;;;;;;;51.55;23.35;;;;;;;-143.48;81.98;118439.88;5077104;28;20500;-33
2023/01/25 06:54:41;;;;;;;51.03;23.35;;;;;;;-143.48;81.97;118439.88;5095070;28;20028;-33
2023/01/25 06:57:09;;;;;;;47.08;22.88;;;;;;;-143.48;82.13;118439.88;5095085;28;20077;-33
2023/01/25 06:59:35;;;;;;;47.40;22.65;;;;;;;-143.48;82.15;118439.88;5095316;28;20522;-33
2023/01/25 07:02:00;;;;;;;50.30;23.58;;;;;;;-143.48;82.25;118439.88;5095246;28;20094;-33
2023/01/25 07:04:25;;;;;;;51.88;24.55;;;;;;;-143.48;82.92;118439.88;5095003;28;20573;-33
2023/01/25 07:06:51;;;;;;;54.47;23.75;;;;;;;-143.48;82.63;118439.88;5094690;28;20435;-33
2023/01/25 07:09:22;;;;;;;51.13;23.50;;;;;;;-143.48;82.81;118439.88;5094833;28;20035;-33
2023/01/25 07:11:47;;;;;;;46.97;22.52;;;;;;;-143.48;82.18;118439.88;5094824;28;20063;-33
2023/01/25 07:14:13;;;;;;;47.28;22.75;;;;;;;-143.48;81.89;118439.88;5094775;28;20096;-33
2023/01/25 07:16:38;;;;;;;50.42;22.73;;;;;;;-143.48;82.48;118439.88;5094632;28;20090;-33
2023/01/25 07:19:05;;;;;;;45.58;20.95;;;;;;;-143.48;81.83;118439.88;5095008;28;20027;-33
2023/01/25 07:21:30;;;;;;;50.95;22.45;;;;;;;-143.48;82.02;118439.88;5094550;28;20030;-33
2023/01/25 07:24:00;;;;;;;48.42;22.33;;;;;;;-143.48;82.32;118439.88;5093027;28;20110;-33
2023/01/25 07:26:25;;;;;;;49.30;21.88;;;;;;;-143.48;82.92;118439.88;5094524;28;20020;-33
2023/01/25 07:28:52;;;;;;;48.10;22.63;;;;;;;-143.48;82.70;118439.88;5094415;28;20078;-32
2023/01/25 07:31:19;;;;;;;50.85;22.80;;;;;;;-143.48;82.82;118439.88;5094987;28;20106;-32
2023/01/25 07:33:49;;;;;;;49.40;22.45;;;;;;;-143.48;83.02;118439.88;5093811;28;20028;-32
2023/01/25 07:36:14;;;;;;;45.17;21.65;;;;;;;-143.48;83.70;118439.88;5094640;28;20467;-32
2023/01/25 07:38:40;;;;;;;48.60;22.88;;;;;;;-143.48;84.19;118439.88;5094334;28;20026;-32
2023/01/25 07:41:05;;;;;;;49.97;22.17;;;;;;;-143.48;84.42;118439.88;5094196;28;20055;-32
2023/01/25 07:43:31;;;;;;;47.95;21.20;;;;;;;-143.48;84.11;118439.88;5093363;28;20024;-32
2023/01/25 07:46:04;;;;;;;48.78;22.17;;;;;;;-143.48;83.32;118439.88;5094441;28;20032;-32
2023/01/25 07:48:31;;;;;;;48.95;22.23;;;;;;;-143.48;84.12;118439.88;5094216;28;20031;-32
2023/01/25 07:53:44;;;;;;;45.47;21.38;;;;;;;-143.48;83.52;118439.88;5094616;28;20386;-32
2023/01/25 07:56:11;;;;;;;46.60;21.88;;;;;;;-143.48;83.11;118439.88;5094019;28;20024;-32
2023/01/25 07:58:37;;;;;;;48.60;22.00;;;;;;;-143.48;83.48;118439.88;5093997;28;20428;-33
2023/01/25 08:01:15;;;;;;;46.72;21.67;;;;;;;-143.48;83.65;118439.88;5094062;28;20033;-33
2023/01/25 08:03:48;;;;;;;47.70;21.88;;;;;;;-143.48;84.11;118439.88;5076104;28;20038;-34
2023/01/25 08:06:15;;;;;;;45.58;21.20;;;;;;;-143.48;83.65;118439.88;5059813;28;20084;-34
2023/01/25 08:08:47;;;;;;;47.03;23.25;;;;;;;-143.48;83.12;118439.88;5094419;28;20485;-33
2023/01/25 08:11:22;;;;;;;46.80;22.30;;;;;;;-143.48;82.77;118439.88;5093720;28;20089;-33
2023/01/25 08:13:48;;;;;;;46.33;21.60;;;;;;;-143.48;83.26;118439.88;5075569;28;20409;-33
2023/01/25 08:16:25;;;;;;;45.42;21.70;;;;;;;-143.48;83.51;118439.88;5094017;28;20035;-33
2023/01/25 08:18:53;;;;;;;50.80;23.05;;;;;;;-143.48;83.22;118439.88;5058966;28;20031;-34
2023/01/25 08:21:19;;;;;;;52.03;22.35;;;;;;;-143.48;83.69;118439.88;5075636;28;20448;-34
2023/01/25 08:23:45;;;;;;;48.80;22.27;;;;;;;-143.48;83.40;118439.88;5094234;28;20024;-33
2023/01/25 08:26:13;;;;;;;51.08;22.67;;;;;;;-143.48;83.94;118439.88;5075484;28;20051;-33
2023/01/25 08:28:38;;;;;;;51.15;21.85;;;;;;;-143.48;83.93;118439.88;5093684;28;20485;-33
2023/01/25 08:31:15;;;;;;;45.97;22.25;;;;;;;-143.48;83.44;118439.88;5093507;28;20024;-33
2023/01/25 08:33:43;;;;;;;48.72;22.33;;;;;;;-143.48;83.39;118439.88;5093753;28;20036;-33
2023/01/25 08:36:09;;;;;;;50.00;22.70;;;;;;;-143.48;82.82;118439.88;5093879;28;20031;-33
2023/01/25 08:38:35;;;;;;;50.97;22.65;;;;;;;-143.48;82.26;118439.88;5093714;28;20097;-34
2023/01/25 08:41:15;;;;;;;54.80;23.35;;;;;;;-143.48;83.02;118439.88;5093265;28;20028;-33
2023/01/25 08:43:40;;;;;;;51.83;22.70;;;;;;;-143.48;82.73;118439.88;5093762;28;20129;-33
2023/01/25 08:46:06;;;;;;;50.97;23.55;;;;;;;-143.48;83.27;118439.88;5093402;28;20113;-33
2023/01/25 08:48:32;;;;;;;52.50;23.00;;;;;;;-143.48;83.72;118439.88;5093394;28;20034;-33
2023/01/25 08:50:58;;;;;;;48.28;22.20;;;;;;;-143.48;83.52;118439.88;5093491;28;20032;-33
2023/01/25 08:53:26;;;;;;;53.30;24.17;;;;;;;-143.48;83.40;118439.88;5093594;28;20024;-33
2023/01/25 08:55:52;;;;;;;49.17;22.48;;;;;;;-143.48;83.02;118439.88;5098116;28;20032;-33
2023/01/25 08:58:20;;;;;;;51.00;22.52;;;;;;;-143.48;82.38;118439.88;5097726;28;20081;-33
2023/01/25 09:00:45;;;;;;;46.22;20.92;;;;;;;-143.48;82.78;118439.88;5097268;28;20028;-33
2023/01/25 09:03:11;;;;;;;49.15;21.10;;;;;;;-143.48;82.49;118439.88;5097887;28;20077;-33
2023/01/25 09:05:38;;;;;;;50.60;21.27;;;;;;;-143.48;83.01;118439.88;5097345;28;20047;-33
2023/01/25 09:08:06;;;;;;;48.97;21.30;;;;;;;-143.48;83.26;118439.88;5097271;28;20028;-33
2023/01/25 09:10:32;;;;;;;54.97;22.55;;;;;;;-143.48;83.95;118439.88;5097450;28;20027;-33
2023/01/25 09:12:57;;;;;;;48.83;21.45;;;;;;;-143.48;84.01;118439.88;5096976;28;20032;-33
2023/01/25 09:15:23;;;;;;;52.53;22.67;;;;;;;-143.48;83.04;118439.88;5096400;28;20382;-34
2023/01/25 09:17:55;;;;;;;53.45;22.67;;;;;;;-143.48;82.65;118439.88;5096315;28;20028;-33
2023/01/25 09:20:22;;;;;;;52.20;22.38;;;;;;;-143.48;81.86;118439.88;5095232;28;20024;-33
2023/01/25 09:22:47;;;;;;;50.33;22.65;;;;;;;-143.48;82.57;118439.88;5095951;28;20477;-33
2023/01/25 09:25:13;;;;;;;53.42;22.63;;;;;;;-143.48;82.78;118439.88;5094721;28;20122;-33
2023/01/25 09:27:38;;;;;;;54.05;24.13;;;;;;;-143.48;82.51;118439.88;5094662;28;20034;-33
2023/01/25 09:30:05;;;;;;;51.47;23.33;;;;;;;-143.48;82.96;118439.88;5096096;28;20370;-34
2023/01/25 09:32:31;;;;;;;56.13;22.65;;;;;;;-143.48;83.46;118439.88;5096734;28;20077;-34
2023/01/25 09:34:57;;;;;;;56.38;23.45;;;;;;;-143.48;83.48;118439.88;5078250;28;20466;-34
2023/01/25 09:37:22;;;;;;;57.40;23.70;;;;;;;-143.48;83.83;118439.88;5096710;28;20028;-34
2023/01/25 09:39:48;;;;;;;54.90;23.58;;;;;;;-143.48;83.88;118439.88;5097309;28;20534;-34
2023/01/25 09:42:41;;;;;;;56.53;23.73;;;;;;;-143.48;83.63;118439.88;5078467;28;20024;-34
2023/01/25 09:45:22;;;;;;;49.92;22.73;;;;;;;-143.48;82.61;118439.88;5096800;28;20370;-33
2023/01/25 09:48:19;;;;;;;57.72;24.15;;;;;;;-143.48;83.55;118439.88;5078419;28;20039;-34
2023/01/25 09:51:20;;;;;;;57.40;23.83;;;;;;;-143.48;83.41;118439.88;5078247;28;20031;-34
2023/01/25 09:53:52;;;;;;;57.15;23.15;;;;;;;-143.48;83.89;118439.88;5096360;28;20032;-33
2023/01/25 09:56:31;;;;;;;57.78;24.63;;;;;;;-143.48;83.87;118439.88;5096289;28;20110;-33
2023/01/25 09:59:02;;;;;;;59.22;23.95;;;;;;;-143.48;83.66;118439.88;5095982;28;20031;-34
2023/01/25 10:01:46;;;;;;;60.03;24.50;;;;;;;-143.48;83.84;118439.88;5096172;28;20028;-34
2023/01/25 10:04:17;;;;;;;56.75;23.63;;;;;;;-143.48;83.74;118439.88;5096127;28;20036;-34
2023/01/25 10:06:45;;;;;;;58.58;24.90;;;;;;;-143.48;83.74;118439.88;5094765;28;20093;-40
2023/01/25 10:09:26;;;;;;;57.17;24.23;;;;;;;-143.48;83.72;118439.88;5096182;28;20347;-33
2023/01/25 10:11:51;;;;;;;61.75;24.65;;;;;;;-143.48;84.32;118439.88;5096018;28;20019;-34
2023/01/25 10:14:18;;;;;;;60.20;24.65;;;;;;;-143.48;84.46;118439.88;5096112;28;20489;-34
2023/01/25 10:16:46;;;;;;;59.03;25.77;;;;;;;-143.48;84.58;118439.88;5096235;28;20454;-34
2023/01/25 10:20:00;;;;;;;58.10;23.90;;;;;;;-143.48;84.55;118439.88;5095964;28;20493;-34
2023/01/25 10:22:52;;;;;;;;;;;;;;;;;;;;;
2023/01/25 10:25:40;;;;;;;62.05;24.33;;;;;;;-143.48;84.40;118439.88;5081702;28;20024;-34
2023/01/25 10:28:20;;;;;;;53.00;21.27;;;;;;;-143.48;83.74;118439.88;5077730;28;20123;-34
2023/01/25 10:30:55;;;;;;;55.83;22.52;;;;;;;-143.48;83.47;118439.88;5077447;28;20024;-34
2023/01/25 10:33:21;;;;;;;61.58;23.85;;;;;;;-143.48;85.07;118439.88;5096086;28;20465;-34
2023/01/25 10:35:48;;;;;;;59.95;23.55;;;;;;;-143.48;85.22;118439.88;5095790;28;20051;-34
2023/01/25 10:38:35;;;;;;;60.60;24.42;;;;;;;-143.48;84.92;118439.88;5095607;28;20031;-33
2023/01/25 10:41:08;;;;;;;56.45;23.90;;;;;;;-143.48;84.80;118439.88;5095476;28;20108;-34
2023/01/25 10:43:33;;;;;;;61.88;23.23;;;;;;;-143.48;84.99;118439.88;5095304;28;20026;-34
2023/01/25 10:46:00;;;;;;;58.80;23.33;;;;;;;-143.48;84.37;118439.88;5095271;28;20510;-37
2023/01/25 10:48:32;;;;;;;57.30;23.98;;;;;;;-143.48;85.05;118439.88;5095573;28;20078;-34
2023/01/25 10:50:57;;;;;;;57.83;23.58;;;;;;;-143.48;84.85;118439.88;5095416;28;20016;-34
2023/01/25 10:53:28;;;;;;;55.35;22.65;;;;;;;-143.48;84.44;118439.88;5095169;28;20054;-34
2023/01/25 10:56:26;;;;;;;58.15;23.85;;;;;;;-143.48;84.55;118439.88;5095404;28;20473;-34
2023/01/25 10:59:06;;;;;;;61.28;23.40;;;;;;;-143.48;85.71;118439.88;5066758;28;20038;-34
2023/01/25 11:01:34;;;;;;;62.35;23.95;;;;;;;-143.48;85.72;118439.88;5058625;28;20035;-34